createdAt,value
2018-03-29T00:02:22.957Z,19.23
2018-03-29T00:04:49.207Z,19.22
2018-03-29T00:07:16.166Z,19.21
2018-03-29T00:09:42.339Z,19.20
2018-03-29T00:12:08.514Z,19.19
2018-03-29T00:14:34.697Z,19.19
2018-03-29T00:17:01.185Z,19.18
2018-03-29T00:19:27.381Z,19.20
2018-03-29T00:21:53.613Z,19.18
2018-03-29T00:24:19.791Z,19.17
2018-03-29T00:26:45.968Z,19.19
2018-03-29T00:29:12.267Z,19.20
2018-03-29T00:31:38.758Z,19.19
2018-03-29T00:34:04.963Z,19.16
2018-03-29T00:36:31.169Z,19.14
2018-03-29T00:38:57.373Z,19.16
2018-03-29T00:41:23.533Z,19.19
2018-03-29T00:43:49.782Z,19.20
2018-03-29T00:46:16.025Z,19.23
2018-03-29T00:48:43.135Z,19.23
2018-03-29T00:51:09.720Z,19.31
2018-03-29T00:53:44.103Z,19.32
2018-03-29T00:56:10.302Z,19.30
2018-03-29T00:58:36.518Z,19.26
2018-03-29T01:01:02.752Z,19.31
2018-03-29T01:03:28.907Z,19.32
2018-03-29T01:05:55.133Z,19.32
2018-03-29T01:08:21.356Z,19.28
2018-03-29T01:10:47.523Z,19.30
2018-03-29T01:13:13.948Z,19.30
2018-03-29T01:15:40.155Z,19.29
2018-03-29T01:18:06.411Z,19.28
2018-03-29T01:20:32.652Z,19.28
2018-03-29T01:22:58.913Z,19.25
2018-03-29T01:25:25.083Z,19.24
2018-03-29T01:27:51.295Z,19.26
2018-03-29T01:30:17.475Z,19.25
2018-03-29T01:32:43.746Z,19.25
2018-03-29T01:35:09.952Z,19.24
2018-03-29T01:37:36.175Z,19.23
2018-03-29T01:40:02.937Z,19.22
2018-03-29T01:42:29.407Z,19.22
2018-03-29T01:44:55.614Z,19.21
2018-03-29T01:47:21.824Z,19.21
2018-03-29T01:49:48.119Z,19.21
2018-03-29T01:52:14.370Z,19.19
2018-03-29T01:54:40.587Z,19.20
2018-03-29T01:57:06.801Z,19.19
2018-03-29T01:59:32.972Z,19.19
2018-03-29T02:01:59.176Z,19.19
2018-03-29T02:04:25.385Z,19.17
2018-03-29T02:06:51.608Z,19.16
2018-03-29T02:09:17.806Z,19.15
2018-03-29T02:11:43.984Z,19.17
2018-03-29T02:14:10.479Z,19.16
2018-03-29T02:16:37.014Z,19.14
2018-03-29T02:19:03.231Z,19.15
2018-03-29T02:21:29.427Z,19.17
2018-03-29T02:23:55.636Z,19.18
2018-03-29T02:26:21.822Z,19.18
2018-03-29T02:28:48.041Z,19.14
2018-03-29T02:31:14.243Z,19.15
2018-03-29T02:33:40.516Z,19.16
2018-03-29T02:36:06.731Z,19.15
2018-03-29T02:38:33.276Z,19.17
2018-03-29T02:40:59.448Z,19.14
2018-03-29T02:43:26.108Z,19.14
2018-03-29T02:45:52.295Z,19.13
2018-03-29T02:48:18.544Z,19.14
2018-03-29T02:50:44.740Z,19.12
2018-03-29T02:53:11.256Z,19.13
2018-03-29T02:55:37.575Z,19.14
2018-03-29T02:58:03.738Z,19.12
2018-03-29T03:00:29.912Z,19.11
2018-03-29T03:02:56.372Z,19.11
2018-03-29T03:05:22.529Z,19.11
2018-03-29T03:07:48.732Z,19.09
2018-03-29T03:10:14.969Z,19.08
2018-03-29T03:12:41.168Z,19.08
2018-03-29T03:15:07.325Z,19.11
2018-03-29T03:17:33.571Z,19.12
2018-03-29T03:19:59.747Z,19.12
2018-03-29T03:22:25.951Z,19.15
2018-03-29T03:24:52.158Z,19.15
2018-03-29T03:27:18.392Z,19.17
2018-03-29T03:29:44.567Z,19.17
2018-03-29T03:32:10.736Z,19.15
2018-03-29T03:34:37.234Z,19.15
2018-03-29T03:37:03.400Z,19.11
2018-03-29T03:39:29.780Z,19.11
2018-03-29T03:41:56.334Z,19.10
2018-03-29T03:44:22.548Z,19.12
2018-03-29T03:46:49.104Z,19.12
2018-03-29T03:49:15.302Z,19.11
2018-03-29T03:51:41.503Z,19.11
2018-03-29T03:54:07.763Z,19.08
2018-03-29T03:56:33.954Z,19.08
2018-03-29T03:59:00.449Z,19.09
2018-03-29T04:01:26.988Z,19.07
2018-03-29T04:03:53.141Z,19.06
2018-03-29T04:06:19.298Z,19.03
2018-03-29T04:08:45.910Z,19.03
2018-03-29T04:11:12.070Z,19.04
2018-03-29T04:13:38.247Z,19.03
2018-03-29T04:16:04.450Z,19.03
2018-03-29T04:18:30.645Z,19.03
2018-03-29T04:20:56.819Z,19.03
2018-03-29T04:23:23.336Z,19.03
2018-03-29T04:25:49.563Z,19.03
2018-03-29T04:28:15.822Z,19.01
2018-03-29T04:30:42.043Z,18.99
2018-03-29T04:33:08.223Z,19.03
2018-03-29T04:35:34.449Z,19.07
2018-03-29T04:38:00.631Z,19.07
2018-03-29T04:40:26.836Z,19.05
2018-03-29T04:42:53.366Z,19.07
2018-03-29T04:45:19.903Z,19.07
2018-03-29T04:47:46.066Z,19.06
2018-03-29T04:50:12.313Z,19.04
2018-03-29T04:52:38.554Z,19.03
2018-03-29T04:55:04.803Z,19.00
2018-03-29T04:57:31.012Z,18.98
2018-03-29T04:59:57.176Z,18.96
2018-03-29T05:02:23.387Z,18.95
2018-03-29T05:04:49.929Z,18.92
2018-03-29T05:07:16.149Z,18.91
2018-03-29T05:09:42.359Z,18.92
2018-03-29T05:12:08.817Z,18.90
2018-03-29T05:14:35.059Z,18.93
2018-03-29T05:17:01.584Z,18.94
2018-03-29T05:19:28.000Z,18.94
2018-03-29T05:21:54.239Z,18.96
2018-03-29T05:24:20.675Z,19.00
2018-03-29T05:26:48.807Z,19.03
2018-03-29T05:29:15.053Z,19.03
2018-03-29T05:31:41.319Z,19.01
2018-03-29T05:34:07.491Z,19.02
2018-03-29T05:36:33.669Z,19.01
2018-03-29T05:38:59.912Z,19.04
2018-03-29T05:41:26.088Z,19.09
2018-03-29T05:43:52.287Z,19.11
2018-03-29T05:46:18.437Z,19.12
2018-03-29T05:48:44.633Z,19.18
2018-03-29T05:51:10.837Z,19.27
2018-03-29T05:53:37.194Z,19.32
2018-03-29T05:56:03.636Z,19.32
2018-03-29T05:58:29.902Z,19.32
2018-03-29T06:00:56.374Z,19.30
2018-03-29T06:03:22.526Z,19.30
2018-03-29T06:05:48.714Z,19.30
2018-03-29T06:08:14.891Z,19.30
2018-03-29T06:10:41.098Z,19.29
2018-03-29T06:13:07.285Z,19.29
2018-03-29T06:15:33.556Z,19.28
2018-03-29T06:17:59.763Z,19.33
2018-03-29T06:20:25.929Z,19.33
2018-03-29T06:22:52.143Z,19.36
2018-03-29T06:25:18.588Z,19.40
2018-03-29T06:27:45.164Z,19.39
2018-03-29T06:30:11.419Z,19.43
2018-03-29T06:32:37.882Z,19.45
2018-03-29T06:35:04.069Z,19.43
2018-03-29T06:37:30.244Z,19.43
2018-03-29T06:39:56.457Z,19.47
2018-03-29T06:42:22.954Z,19.46
2018-03-29T06:44:49.192Z,19.53
2018-03-29T06:47:15.380Z,19.58
2018-03-29T06:49:41.549Z,19.58
2018-03-29T06:52:07.774Z,19.57
2018-03-29T06:54:34.261Z,19.59
2018-03-29T06:57:00.678Z,19.59
2018-03-29T06:59:26.879Z,19.62
2018-03-29T07:01:53.088Z,19.63
2018-03-29T07:04:19.352Z,19.67
2018-03-29T07:06:45.617Z,19.69
2018-03-29T07:09:11.826Z,19.76
2018-03-29T07:11:38.036Z,19.81
2018-03-29T07:14:04.206Z,19.82
2018-03-29T07:16:30.424Z,19.77
2018-03-29T07:18:56.645Z,19.71
2018-03-29T07:21:22.949Z,19.67
2018-03-29T07:23:49.122Z,19.65
2018-03-29T07:26:15.345Z,19.66
2018-03-29T07:28:42.219Z,19.76
2018-03-29T07:31:08.399Z,19.81
2018-03-29T07:33:34.588Z,19.90
2018-03-29T07:36:00.803Z,19.96
2018-03-29T07:38:27.389Z,19.96
2018-03-29T07:40:53.857Z,19.97
2018-03-29T07:43:20.078Z,20.01
2018-03-29T07:45:46.355Z,20.05
2018-03-29T07:48:12.731Z,20.06
2018-03-29T07:50:38.953Z,20.02
2018-03-29T07:53:05.128Z,20.05
2018-03-29T07:55:31.339Z,20.13
2018-03-29T07:57:57.622Z,20.14
2018-03-29T08:00:23.887Z,20.14
2018-03-29T08:02:50.060Z,20.13
2018-03-29T08:05:16.548Z,20.10
2018-03-29T08:07:43.191Z,20.03
2018-03-29T08:10:09.623Z,19.99
2018-03-29T08:12:35.808Z,19.96
2018-03-29T08:15:02.485Z,19.99
2018-03-29T08:17:28.659Z,20.03
2018-03-29T08:19:54.831Z,20.04
2018-03-29T08:22:21.043Z,20.04
2018-03-29T08:24:47.252Z,20.06
2018-03-29T08:27:13.449Z,20.08
2018-03-29T08:29:39.913Z,20.16
2018-03-29T08:32:06.448Z,20.25
2018-03-29T08:34:32.687Z,20.25
2018-03-29T08:36:58.916Z,20.25
2018-03-29T08:39:25.138Z,20.23
2018-03-29T08:41:51.401Z,20.23
2018-03-29T08:44:17.578Z,20.14
2018-03-29T08:46:44.062Z,20.08
2018-03-29T08:49:10.357Z,20.10
2018-03-29T08:51:36.567Z,20.16
2018-03-29T08:54:02.793Z,20.20
2018-03-29T08:56:29.009Z,20.23
2018-03-29T08:58:55.299Z,20.27
2018-03-29T09:01:21.517Z,20.33
2018-03-29T09:03:47.707Z,20.39
2018-03-29T09:06:13.923Z,20.42
2018-03-29T09:08:40.423Z,20.43
2018-03-29T09:11:06.659Z,20.44
2018-03-29T09:13:32.829Z,20.45
2018-03-29T09:15:58.998Z,20.48
2018-03-29T09:18:25.271Z,20.56
2018-03-29T09:20:51.456Z,20.58
2018-03-29T09:23:17.895Z,20.54
2018-03-29T09:25:44.097Z,20.48
2018-03-29T09:28:10.660Z,20.45
2018-03-29T09:30:36.889Z,20.42
2018-03-29T09:33:03.178Z,20.41
2018-03-29T09:35:29.420Z,20.46
2018-03-29T09:37:55.594Z,20.50
2018-03-29T09:40:21.900Z,20.51
2018-03-29T09:42:48.117Z,20.52
2018-03-29T09:45:14.337Z,20.60
2018-03-29T09:47:40.571Z,20.65
2018-03-29T09:50:06.763Z,20.70
2018-03-29T09:52:32.973Z,20.69
2018-03-29T09:54:59.888Z,20.67
2018-03-29T09:57:26.061Z,20.65
2018-03-29T09:59:52.298Z,20.65
2018-03-29T10:02:18.537Z,20.67
2018-03-29T10:04:51.162Z,20.67
2018-03-29T10:07:23.365Z,20.70
2018-03-29T10:09:49.526Z,20.71
2018-03-29T10:12:15.782Z,20.69
2018-03-29T10:14:42.023Z,20.69
2018-03-29T10:17:08.533Z,20.70
2018-03-29T10:19:34.734Z,20.68
2018-03-29T10:22:01.003Z,20.65
2018-03-29T10:24:27.237Z,20.65
2018-03-29T10:26:53.487Z,20.66
2018-03-29T10:29:19.676Z,20.67
2018-03-29T10:31:46.354Z,20.66
2018-03-29T10:34:12.532Z,20.62
2018-03-29T10:36:38.752Z,20.58
2018-03-29T10:39:05.032Z,20.52
2018-03-29T10:41:31.706Z,20.48
2018-03-29T10:43:57.886Z,20.51
2018-03-29T10:46:24.395Z,20.50
2018-03-29T10:48:50.661Z,20.55
2018-03-29T10:51:17.166Z,20.50
2018-03-29T10:53:43.382Z,20.49
2018-03-29T10:56:09.663Z,20.47
2018-03-29T10:58:36.113Z,20.48
2018-03-29T11:01:02.312Z,20.47
2018-03-29T11:03:28.558Z,20.47
2018-03-29T11:05:54.788Z,20.54
2018-03-29T11:08:21.053Z,20.57
2018-03-29T11:10:47.336Z,20.58
2018-03-29T11:13:13.677Z,20.59
2018-03-29T11:15:40.150Z,20.65
2018-03-29T11:18:06.346Z,20.70
2018-03-29T11:20:32.785Z,20.77
2018-03-29T11:22:58.945Z,20.86
2018-03-29T11:25:25.143Z,20.90
2018-03-29T11:27:51.321Z,20.94
2018-03-29T11:30:20.413Z,20.96
2018-03-29T11:32:46.772Z,20.90
2018-03-29T11:35:13.268Z,20.77
2018-03-29T11:37:39.512Z,20.66
2018-03-29T11:40:05.683Z,20.57
2018-03-29T11:42:32.280Z,20.53
2018-03-29T11:44:58.458Z,20.52
2018-03-29T11:47:24.943Z,20.47
2018-03-29T11:49:51.229Z,20.42
2018-03-29T11:52:17.460Z,20.39
2018-03-29T11:54:44.011Z,20.41
2018-03-29T11:57:10.558Z,20.47
2018-03-29T11:59:36.775Z,20.56
2018-03-29T12:02:02.975Z,20.62
2018-03-29T12:04:29.430Z,20.64
2018-03-29T12:06:55.622Z,20.58
2018-03-29T12:09:21.857Z,20.52
2018-03-29T12:11:48.047Z,20.48
2018-03-29T12:14:14.466Z,20.51
2018-03-29T12:16:40.747Z,20.49
2018-03-29T12:19:06.965Z,20.53
2018-03-29T12:21:33.155Z,20.56
2018-03-29T12:23:59.666Z,20.62
2018-03-29T12:26:26.104Z,20.70
2018-03-29T12:28:52.378Z,20.79
2018-03-29T12:31:18.696Z,20.84
2018-03-29T12:33:45.089Z,20.92
2018-03-29T12:36:11.267Z,20.92
2018-03-29T12:38:37.759Z,20.89
2018-03-29T12:41:03.972Z,20.91
2018-03-29T12:43:30.416Z,20.87
2018-03-29T12:45:56.643Z,20.79
2018-03-29T12:48:22.814Z,20.71
2018-03-29T12:50:48.998Z,20.69
2018-03-29T12:53:15.242Z,20.67
2018-03-29T12:55:41.496Z,20.63
2018-03-29T12:58:10.861Z,20.57
2018-03-29T13:00:37.072Z,20.50
2018-03-29T13:03:03.284Z,20.44
2018-03-29T13:05:29.466Z,20.44
2018-03-29T13:07:55.695Z,20.45
2018-03-29T13:10:21.982Z,20.48
2018-03-29T13:12:48.426Z,20.51
2018-03-29T13:15:14.607Z,20.54
2018-03-29T13:17:41.096Z,20.60
2018-03-29T13:20:07.570Z,20.64
2018-03-29T13:22:34.173Z,20.61
2018-03-29T13:25:00.383Z,20.54
2018-03-29T13:27:27.409Z,20.51
2018-03-29T13:29:54.005Z,20.48
2018-03-29T13:32:20.803Z,20.45
2018-03-29T13:34:47.332Z,20.51
2018-03-29T13:37:14.021Z,20.59
2018-03-29T13:39:40.782Z,20.66
2018-03-29T13:42:06.998Z,20.69
2018-03-29T13:44:33.429Z,20.64
2018-03-29T13:46:59.927Z,20.60
2018-03-29T13:49:26.167Z,20.58
2018-03-29T13:51:52.696Z,20.54
2018-03-29T13:54:18.997Z,20.55
2018-03-29T13:56:45.188Z,20.60
2018-03-29T13:59:11.387Z,20.65
2018-03-29T14:01:37.967Z,20.69
2018-03-29T14:04:04.137Z,20.76
2018-03-29T14:06:30.320Z,20.76
2018-03-29T14:08:56.913Z,20.70
2018-03-29T14:11:23.156Z,20.69
2018-03-29T14:13:49.492Z,20.72
2018-03-29T14:16:15.662Z,20.88
2018-03-29T14:18:41.908Z,21.08
2018-03-29T14:21:08.119Z,21.03
2018-03-29T14:23:34.715Z,20.97
2018-03-29T14:26:01.037Z,20.90
2018-03-29T14:28:27.298Z,20.92
2018-03-29T14:30:53.494Z,20.97
2018-03-29T14:33:19.931Z,20.99
2018-03-29T14:35:46.506Z,20.98
2018-03-29T14:38:13.081Z,21.16
2018-03-29T14:40:39.362Z,21.20
2018-03-29T14:43:05.602Z,21.01
2018-03-29T14:45:32.166Z,20.82
2018-03-29T14:47:58.372Z,20.65
2018-03-29T14:50:24.831Z,20.50
2018-03-29T14:52:51.428Z,20.41
2018-03-29T14:55:17.635Z,20.35
2018-03-29T14:57:44.125Z,20.30
2018-03-29T15:00:10.568Z,20.25
2018-03-29T15:02:36.786Z,20.19
2018-03-29T15:05:03.050Z,20.18
2018-03-29T15:07:29.273Z,20.16
2018-03-29T15:09:55.473Z,20.14
2018-03-29T15:12:21.956Z,20.12
2018-03-29T15:14:48.302Z,20.10
2018-03-29T15:17:14.488Z,20.09
2018-03-29T15:19:40.750Z,20.08
2018-03-29T15:22:06.945Z,20.05
2018-03-29T15:24:33.214Z,20.05
2018-03-29T15:26:59.784Z,20.07
2018-03-29T15:29:26.001Z,20.08
2018-03-29T15:31:52.226Z,20.13
2018-03-29T15:34:18.450Z,20.18
2018-03-29T15:36:44.901Z,20.26
2018-03-29T15:39:11.120Z,20.38
2018-03-29T15:41:37.304Z,20.33
2018-03-29T15:44:03.520Z,20.30
2018-03-29T15:46:29.703Z,20.55
2018-03-29T15:48:56.036Z,20.56
2018-03-29T15:51:22.231Z,20.38
2018-03-29T15:53:48.460Z,20.26
2018-03-29T15:56:14.651Z,20.16
2018-03-29T15:58:40.826Z,20.10
2018-03-29T16:01:07.323Z,20.06
2018-03-29T16:03:33.482Z,20.04
2018-03-29T16:06:06.675Z,20.04
2018-03-29T16:08:32.888Z,20.01
2018-03-29T16:10:59.141Z,20.00
2018-03-29T16:13:25.405Z,19.98
2018-03-29T16:15:51.595Z,19.99
2018-03-29T16:18:17.815Z,20.01
2018-03-29T16:20:44.281Z,19.96
2018-03-29T16:23:10.824Z,19.95
2018-03-29T16:25:37.033Z,19.95
2018-03-29T16:28:03.197Z,19.97
2018-03-29T16:30:29.450Z,19.95
2018-03-29T16:32:55.925Z,19.92
2018-03-29T16:35:22.154Z,19.92
2018-03-29T16:37:48.998Z,19.90
2018-03-29T16:40:15.254Z,19.87
2018-03-29T16:42:41.514Z,19.85
2018-03-29T16:45:07.796Z,19.82
2018-03-29T16:47:34.317Z,19.80
2018-03-29T16:50:00.753Z,19.79
2018-03-29T16:52:26.962Z,19.79
2018-03-29T16:54:53.235Z,19.78
2018-03-29T16:57:19.470Z,19.77
2018-03-29T16:59:45.644Z,19.77
2018-03-29T17:02:11.936Z,19.77
2018-03-29T17:04:38.148Z,19.77
2018-03-29T17:07:04.665Z,19.75
2018-03-29T17:09:31.257Z,19.73
2018-03-29T17:11:57.421Z,19.74
2018-03-29T17:14:23.724Z,19.75
2018-03-29T17:16:50.011Z,19.73
2018-03-29T17:19:16.158Z,19.72
2018-03-29T17:21:42.366Z,19.70
2018-03-29T17:24:08.608Z,19.68
2018-03-29T17:26:34.812Z,19.66
2018-03-29T17:29:01.014Z,19.66
2018-03-29T17:31:27.191Z,19.66
2018-03-29T17:33:53.415Z,19.66
2018-03-29T17:36:19.911Z,19.66
2018-03-29T17:38:46.092Z,19.68
2018-03-29T17:41:12.587Z,19.68
2018-03-29T17:43:39.529Z,19.66
2018-03-29T17:46:05.721Z,19.64
2018-03-29T17:48:31.895Z,19.64
2018-03-29T17:50:58.514Z,19.69
2018-03-29T17:53:24.786Z,19.70
2018-03-29T17:55:51.143Z,19.74
2018-03-29T17:58:18.143Z,19.85
2018-03-29T18:00:44.648Z,19.80
2018-03-29T18:03:10.824Z,19.78
2018-03-29T18:05:37.028Z,19.79
2018-03-29T18:08:03.182Z,19.82
2018-03-29T18:10:29.662Z,19.85
2018-03-29T18:12:55.877Z,19.82
2018-03-29T18:15:29.043Z,19.79
2018-03-29T18:17:55.248Z,19.73
2018-03-29T18:20:21.460Z,19.72
2018-03-29T18:22:47.664Z,19.71
2018-03-29T18:25:13.898Z,19.72
2018-03-29T18:27:40.055Z,19.70
2018-03-29T18:30:06.244Z,19.68
2018-03-29T18:32:33.296Z,19.66
2018-03-29T18:34:59.461Z,19.66
2018-03-29T18:37:25.969Z,19.65
2018-03-29T18:39:52.491Z,19.64
2018-03-29T18:42:18.675Z,19.62
2018-03-29T18:44:44.837Z,19.62
2018-03-29T18:47:11.043Z,19.59
2018-03-29T18:49:37.215Z,19.60
2018-03-29T18:52:03.426Z,19.62
2018-03-29T18:54:29.645Z,19.64
2018-03-29T18:56:55.901Z,19.62
2018-03-29T18:59:22.110Z,19.63
2018-03-29T19:01:48.384Z,19.63
2018-03-29T19:04:14.559Z,19.64
2018-03-29T19:06:40.714Z,19.65
2018-03-29T19:09:06.948Z,19.63
2018-03-29T19:11:33.462Z,19.64
2018-03-29T19:13:59.677Z,19.64
2018-03-29T19:16:26.219Z,19.63
2018-03-29T19:18:52.511Z,19.63
2018-03-29T19:21:18.778Z,19.63
2018-03-29T19:23:45.054Z,19.63
2018-03-29T19:26:11.217Z,19.63
2018-03-29T19:28:37.391Z,19.63
2018-03-29T19:31:03.617Z,19.60
2018-03-29T19:33:29.783Z,19.60
2018-03-29T19:35:55.979Z,19.59
2018-03-29T19:38:22.474Z,19.59
2018-03-29T19:40:49.016Z,19.59
2018-03-29T19:43:15.186Z,19.58
2018-03-29T19:45:41.373Z,19.59
2018-03-29T19:48:07.561Z,19.58
2018-03-29T19:50:33.866Z,19.57
2018-03-29T19:53:00.095Z,19.55
2018-03-29T19:55:26.280Z,19.54
2018-03-29T19:57:52.580Z,19.53
2018-03-29T20:00:18.755Z,19.53
2018-03-29T20:02:45.271Z,19.52
2018-03-29T20:05:11.479Z,19.52
2018-03-29T20:07:37.694Z,19.50
2018-03-29T20:10:04.164Z,19.50
2018-03-29T20:12:30.711Z,19.51
2018-03-29T20:14:56.936Z,19.48
2018-03-29T20:17:23.118Z,19.46
2018-03-29T20:19:49.323Z,19.46
2018-03-29T20:22:15.563Z,19.46
2018-03-29T20:24:41.771Z,19.48
2018-03-29T20:27:08.027Z,19.48
2018-03-29T20:29:34.180Z,19.48
2018-03-29T20:32:00.369Z,19.49
2018-03-29T20:34:26.551Z,19.49
2018-03-29T20:36:52.742Z,19.49
2018-03-29T20:39:19.026Z,19.49
2018-03-29T20:41:45.248Z,19.48
2018-03-29T20:44:11.419Z,19.47
2018-03-29T20:46:37.591Z,19.47
2018-03-29T20:49:04.134Z,19.46
2018-03-29T20:51:30.293Z,19.45
2018-03-29T20:53:56.491Z,19.44
2018-03-29T20:56:22.802Z,19.43
2018-03-29T20:58:48.995Z,19.43
2018-03-29T21:01:15.218Z,19.43
2018-03-29T21:03:41.437Z,19.42
2018-03-29T21:06:07.640Z,19.42
2018-03-29T21:08:33.815Z,19.40
2018-03-29T21:11:00.683Z,19.38
2018-03-29T21:13:26.859Z,19.36
2018-03-29T21:15:53.028Z,19.36
2018-03-29T21:18:19.274Z,19.34
2018-03-29T21:20:45.443Z,19.35
2018-03-29T21:23:11.647Z,19.35
2018-03-29T21:25:37.945Z,19.36
2018-03-29T21:28:04.167Z,19.36
2018-03-29T21:30:30.337Z,19.34
2018-03-29T21:32:56.555Z,19.35
2018-03-29T21:35:22.851Z,19.35
2018-03-29T21:37:49.058Z,19.34
2018-03-29T21:40:15.209Z,19.35
2018-03-29T21:42:41.419Z,19.33
2018-03-29T21:45:07.590Z,19.35
2018-03-29T21:47:33.820Z,19.32
2018-03-29T21:49:59.973Z,19.32
2018-03-29T21:52:26.182Z,19.31
2018-03-29T21:54:52.391Z,19.30
2018-03-29T21:57:18.616Z,19.29
2018-03-29T21:59:44.843Z,19.29
2018-03-29T22:02:11.023Z,19.28
2018-03-29T22:04:37.187Z,19.28
2018-03-29T22:07:03.399Z,19.27
2018-03-29T22:09:29.613Z,19.26
2018-03-29T22:11:55.800Z,19.26
2018-03-29T22:14:22.048Z,19.26
2018-03-29T22:16:48.255Z,19.24
2018-03-29T22:19:14.766Z,19.26
2018-03-29T22:21:41.243Z,19.25
2018-03-29T22:24:07.410Z,19.23
2018-03-29T22:26:33.591Z,19.22
2018-03-29T22:28:59.785Z,19.22
2018-03-29T22:31:25.943Z,19.24
2018-03-29T22:33:52.196Z,19.23
2018-03-29T22:36:18.685Z,19.22
2018-03-29T22:38:45.212Z,19.21
2018-03-29T22:41:11.639Z,19.21
2018-03-29T22:43:37.804Z,19.20
2018-03-29T22:46:04.057Z,19.20
2018-03-29T22:48:30.294Z,19.18
2018-03-29T22:50:56.466Z,19.18
2018-03-29T22:53:22.625Z,19.19
2018-03-29T22:55:48.823Z,19.20
2018-03-29T22:58:15.008Z,19.20
2018-03-29T23:00:41.223Z,19.19
2018-03-29T23:03:07.407Z,19.19
2018-03-29T23:05:33.978Z,19.18
2018-03-29T23:08:00.170Z,19.16
2018-03-29T23:10:26.390Z,19.17
2018-03-29T23:12:52.914Z,19.16
2018-03-29T23:15:19.107Z,19.15
2018-03-29T23:17:45.570Z,19.18
2018-03-29T23:20:12.139Z,19.18
2018-03-29T23:22:38.332Z,19.18
2018-03-29T23:25:04.490Z,19.16
2018-03-29T23:27:30.710Z,19.14
2018-03-29T23:29:56.949Z,19.15
2018-03-29T23:32:23.109Z,19.14
2018-03-29T23:34:49.743Z,19.15
2018-03-29T23:37:16.227Z,19.13
2018-03-29T23:39:42.441Z,19.11
2018-03-29T23:42:08.665Z,19.11
2018-03-29T23:44:35.205Z,19.11
2018-03-29T23:47:01.366Z,19.09
2018-03-29T23:49:27.558Z,19.08
2018-03-29T23:51:53.747Z,19.11
2018-03-29T23:54:19.897Z,19.09
2018-03-29T23:56:46.085Z,19.06
2018-03-29T23:59:12.310Z,19.05
